KDAL

Dallas Love Field Airport

Dallas, Texas, USA
METAR KDAL 231953Z 09008KT 10SM FEW006 FEW100 FEW160 BKN250 23/07 A3017 RMK AO2 SLP211 FU FEW006 W T02280067
Observed Flight Rules
Oct-23 @ 19:53 UTC (37 minutes ago) Visual Flight Rules
Wind Visibility Clouds
90° at 8 knots 10 miles
  • Few at 600' AGL
  • Few at 10,000' AGL
  • Few at 16,000' AGL
  • Broken at 25,000' AGL
Temperatures Readings
Current 23°C / 73°F
Dewpoint 7°C / 45°F
Humidity 36%
Altimeter 30.17" Hg
Pressure 1021.1 hPa
Elevation 158
METAR KDAL 231953Z 09008KT 10SM FEW006 FEW100 FEW160 BKN250 23/07 A3017 RMK AO2 SLP211 FU FEW006 W T02280067
Observed Flight Rules
Oct-23 @ 19:53 UTC
(37 minutes ago)
VFR
Wind Visibility
90° at 8 knots 10 miles
Clouds
  • Few at 600' AGL
  • Few at 10,000' AGL
  • Few at 16,000' AGL
  • Broken at 25,000' AGL
Temperature Dewpoint
23°C / 73°F 7°C / 45°F
Humidity Altimeter Pressure
36% 30.17" Hg 1021.1 hPa